Tonopah, NV (89049)

01:20 PDT le 31 octobre 2014 (GMT -0700)
Tonopah | Change Station
CLOSE
Current Station
Aéroport
Location: Tonopah,
Altitude: 5427 ft
Stations météo à proximité
Avis météorologiques actifs: Winter Weather Advisory, Wind Advisory Préavis actif: Record Report

Alt. 5427 ft 38.05 °N, 117.09 °W | Updated 24 minutes ago

Partiellement nuageux
Partiellement nuageux
52 ° F
Paraît 52 ° F
N
12
Vent Variable Vent de ESE

Aujourd'hui
Haut(e) -- | Bas -- ° F
--% Risque de précip.
Hier
Haut(e) -- | Bas -- ° F
Precip. -- pouce
7:13 AM 5:50 PM
Premier quartier, 53% visible
Pression 29.90 pouce
Visibilité 10.0 Miles terrestres
Nuages Ciel dégagé
Point de rosée 20 ° F
Humidité 28%
Précipitations 0.00 pouce
Profondeur de la couche neigeuse Non disponible.
UV 0 sur 12
Pollen 1.10 sur 12
Qualité de l'air Non disponible.
Flu Activity Non disponible.
METAR KTPH 310756Z AUTO 11010KT 10SM CLR 11/M07 A3005 RMK AO2 SLP124 T01111067 402330033

More Conditions Fewer Conditions

Pression 29.90 pouce
Visibilité 10.0 Miles terrestres
Nuages Ciel dégagé
Point de rosée 20 ° F
Humidité 28%
Précipitations 0.00 pouce
Profondeur de la couche neigeuse Non disponible.
UV 0 sur 12
Pollen 1.10 sur 12
Qualité de l'air Non disponible.
Flu Activity Non disponible.
METAR KTPH 310756Z AUTO 11010KT 10SM CLR 11/M07 A3005 RMK AO2 SLP124 T01111067 402330033

More Conditions Fewer Conditions

10-Day Weather Forecast

Almanac

Astronomie

Oct. 31, 2014 Lever Coucher
Temps réel
Crépuscule civil
Crépuscule nautique
Crépuscule astronomique
Lune
Durée de lumière visible
Longueur du jour
Tomorrow will be .
, % of the Moon is Illuminated

Extrêmes aujourd'hui

State Highs State Lows

Community

WunderPhotos

Upload Photos

1,766,573 Photos téléchargées !

WunderBlogs® & News

Nearby

Qualité de l'air

  Qualité de l'air Indice de la qualité de l'air Polluant
Not available.

Épaisseur de neige

Station Depth Altitude

Activité sismique

Ville Distance Mag. Time & Date
Minimum magnitude displayed is 2.5.

Températures des eaux côtières

Lieu Température

Stations météo à proximité